Time;durP1;ratioP1;P1;durP2;ratioP2;P2;SDS_P1;SDS_P2;PMS_P1;PMS_P2;Temp;Humidity;BMP_temperature;BMP_pressure;BME280_temperature;BME280_humidity;BME280_pressure;Samples;Min_cycle;Max_cycle;Signal;HPM_P1;HPM_P2
2021/12/27 00:01:25;;;;;;;2.10;1.33;;;;;;;-145.69;100.00;71615.31;5053162;28;20245;-77
2021/12/27 00:03:52;;;;;;;3.27;1.67;;;;;;;-145.69;100.00;71609.34;5054045;28;20219;-76
2021/12/27 00:06:19;;;;;;;2.13;1.40;;;;;;;-145.69;100.00;71599.41;5054337;28;20282;-77
2021/12/27 00:08:45;;;;;;;3.37;1.77;;;;;;;-145.69;100.00;71593.44;5054897;28;20202;-77
2021/12/27 00:11:14;;;;;;;3.17;1.90;;;;;;;-145.69;100.00;71585.47;5054030;28;20217;-77
2021/12/27 00:13:40;;;;;;;2.40;1.80;;;;;;;-145.69;100.00;71581.50;5054740;28;20306;-77
2021/12/27 00:16:08;;;;;;;3.67;2.07;;;;;;;-145.69;100.00;71595.41;5053420;28;20218;-77
2021/12/27 00:18:35;;;;;;;3.43;2.03;;;;;;;-145.69;100.00;71585.47;5054347;28;20257;-77
2021/12/27 00:21:02;;;;;;;3.00;1.87;;;;;;;-145.69;100.00;71597.41;5053412;28;20199;-77
2021/12/27 00:23:28;;;;;;;3.53;2.10;;;;;;;-145.69;100.00;71603.38;5053015;28;20663;-76
2021/12/27 00:25:55;;;;;;;7.60;2.33;;;;;;;-145.69;100.00;71581.50;5052752;28;20543;-76
2021/12/27 00:28:21;;;;;;;3.30;2.00;;;;;;;-145.69;100.00;71589.44;5052739;28;20222;-76
2021/12/27 00:30:48;;;;;;;6.30;2.97;;;;;;;-145.69;100.00;71601.38;5050298;28;20443;-77
2021/12/27 00:33:16;;;;;;;3.30;2.13;;;;;;;-145.69;100.00;71619.28;5052880;28;20203;-77
2021/12/27 00:35:42;;;;;;;3.17;1.90;;;;;;;-145.69;100.00;71611.34;5052479;28;20587;-76
2021/12/27 00:38:09;;;;;;;3.80;2.27;;;;;;;-145.69;100.00;71617.31;5049936;28;20203;-77
2021/12/27 00:40:36;;;;;;;5.33;1.97;;;;;;;-145.69;100.00;71617.31;5053993;28;20609;-77
2021/12/27 00:43:02;;;;;;;3.43;2.30;;;;;;;-145.69;100.00;71617.31;5053164;28;20206;-77
2021/12/27 00:45:29;;;;;;;3.90;2.10;;;;;;;-145.69;100.00;71615.31;5052155;28;20261;-76
2021/12/27 00:47:55;;;;;;;4.93;2.23;;;;;;;-145.69;100.00;71613.31;5053869;28;20200;-76
2021/12/27 00:50:23;;;;;;;3.90;2.30;;;;;;;-145.69;100.00;71625.25;5053755;28;20199;-76
2021/12/27 00:52:50;;;;;;;3.63;2.17;;;;;;;-145.69;100.00;71633.22;5052994;28;20199;-76
2021/12/27 00:55:18;;;;;;;4.67;2.70;;;;;;;-145.69;100.00;71637.19;5053300;28;20746;-76
2021/12/27 00:57:45;;;;;;;6.40;2.80;;;;;;;-145.69;100.00;71629.25;5052358;28;20206;-77
2021/12/27 01:00:16;;;;;;;4.30;2.70;;;;;;;-145.69;100.00;71629.25;5053025;28;20290;-76
2021/12/27 01:02:43;;;;;;;6.33;3.30;;;;;;;-145.69;100.00;71621.28;5049908;28;20195;-77
2021/12/27 01:05:10;;;;;;;6.53;2.97;;;;;;;-145.69;100.00;71629.25;5052659;28;20195;-76
2021/12/27 01:07:38;;;;;;;5.33;3.20;;;;;;;-145.69;100.00;71633.22;5052069;28;20203;-76
2021/12/27 01:10:21;;;;;;;6.40;3.20;;;;;;;-145.69;100.00;71645.16;5052438;28;20605;-77
2021/12/27 01:12:51;;;;;;;4.73;2.80;;;;;;;-145.69;100.00;71647.16;5052036;28;20278;-77
2021/12/27 01:15:45;;;;;;;6.43;3.20;;;;;;;-145.69;100.00;71653.13;5051644;28;20709;-77
2021/12/27 01:18:12;;;;;;;7.90;4.18;;;;;;;-145.69;100.00;71647.16;5049584;28;20447;-76
2021/12/27 01:20:38;;;;;;;6.60;3.13;;;;;;;-145.69;100.00;71643.19;5052715;28;20195;-76
2021/12/27 01:23:06;;;;;;;8.10;3.23;;;;;;;-145.69;100.00;71641.19;5053104;28;20235;-76
2021/12/27 01:25:34;;;;;;;5.63;2.73;;;;;;;-145.69;100.00;71641.19;5051715;28;20202;-76
2021/12/27 01:28:00;;;;;;;4.77;2.70;;;;;;;-145.69;100.00;71645.16;5053030;28;20531;-77
2021/12/27 01:30:28;;;;;;;6.13;2.73;;;;;;;-145.69;100.00;71629.25;5051983;28;20589;-77
2021/12/27 01:32:58;;;;;;;4.60;2.77;;;;;;;-145.69;100.00;71631.25;5051180;28;20202;-76
2021/12/27 01:35:25;;;;;;;5.17;2.57;;;;;;;-145.69;100.00;71623.28;5032960;28;20214;-76
2021/12/27 01:37:54;;;;;;;6.03;2.57;;;;;;;-145.69;100.00;71619.28;5049392;28;20219;-76
2021/12/27 01:40:26;;;;;;;5.60;2.13;;;;;;;-145.69;100.00;71605.38;5053253;28;20202;-76
2021/12/27 01:43:08;;;;;;;3.47;2.30;;;;;;;-145.69;100.00;71593.44;5051885;28;20221;-76
2021/12/27 01:45:37;;;;;;;5.70;2.80;;;;;;;-145.69;100.00;71603.38;5052765;28;20202;-77
2021/12/27 01:48:06;;;;;;;4.47;2.50;;;;;;;-145.69;100.00;71609.34;5048513;28;20195;-76
2021/12/27 01:50:32;;;;;;;4.50;1.73;;;;;;;-145.69;100.00;71617.31;5052405;28;20244;-77
2021/12/27 01:52:59;;;;;;;3.83;1.63;;;;;;;-145.69;100.00;71601.38;5052858;28;20207;-76
2021/12/27 01:55:27;;;;;;;6.37;2.90;;;;;;;-145.69;100.00;71603.38;5051722;28;20249;-76
2021/12/27 01:57:53;;;;;;;4.97;2.67;;;;;;;-145.69;100.00;71607.34;5052367;28;20223;-76
2021/12/27 02:00:20;;;;;;;5.53;3.07;;;;;;;-145.69;100.00;71581.50;5052317;28;20681;-76
2021/12/27 02:02:47;;;;;;;6.13;2.70;;;;;;;-145.69;100.00;71575.50;5051111;28;20203;-76
2021/12/27 02:05:14;;;;;;;5.97;3.07;;;;;;;-145.69;100.00;71595.41;5046784;28;20645;-76
2021/12/27 02:07:41;;;;;;;8.33;2.27;;;;;;;-145.69;100.00;71595.41;5052398;28;20245;-76
2021/12/27 02:10:09;;;;;;;5.77;2.50;;;;;;;-145.69;100.00;71587.47;5051908;28;20249;-76
2021/12/27 02:12:37;;;;;;;3.77;2.37;;;;;;;-145.69;100.00;71579.50;5052744;28;20207;-77
2021/12/27 02:15:07;;;;;;;4.67;2.77;;;;;;;-145.69;100.00;71561.59;5051301;28;20647;-77
2021/12/27 02:17:34;;;;;;;5.00;2.60;;;;;;;-145.69;100.00;71545.66;5056082;28;20230;-76
2021/12/27 02:20:04;;;;;;;6.70;2.67;;;;;;;-145.69;100.00;71525.78;5055884;28;20199;-76
2021/12/27 02:22:34;;;;;;;5.43;2.63;;;;;;;-145.69;100.00;71541.69;5056046;28;20687;-76
2021/12/27 02:25:02;;;;;;;4.80;2.63;;;;;;;-145.69;100.00;71529.75;5055833;28;20195;-76
2021/12/27 02:27:29;;;;;;;4.47;2.80;;;;;;;-145.69;100.00;71533.72;5054954;28;20655;-76
2021/12/27 02:29:55;;;;;;;3.83;2.47;;;;;;;-145.69;100.00;71533.72;5055135;28;20200;-76
2021/12/27 02:32:21;;;;;;;5.03;2.03;;;;;;;-145.69;100.00;71547.66;5056079;28;20274;-77
2021/12/27 02:34:48;;;;;;;5.33;2.30;;;;;;;-145.69;100.00;71565.56;5055640;28;20198;-76
2021/12/27 02:37:16;;;;;;;4.70;2.50;;;;;;;-145.69;100.00;71533.72;5055166;28;20223;-77
2021/12/27 02:39:44;;;;;;;3.63;2.30;;;;;;;-145.69;100.00;71553.63;5055644;28;20202;-76
2021/12/27 02:42:17;;;;;;;4.33;2.30;;;;;;;-145.69;100.00;71573.53;5055724;28;20202;-76
2021/12/27 02:44:43;;;;;;;5.40;2.57;;;;;;;-145.69;100.00;71577.50;5055497;28;20226;-76
2021/12/27 02:47:10;;;;;;;3.13;2.20;;;;;;;-145.69;100.00;71567.56;5055728;28;20208;-76
2021/12/27 02:49:36;;;;;;;6.67;3.17;;;;;;;-145.69;100.00;71561.59;5055274;28;20196;-76
2021/12/27 02:52:03;;;;;;;6.20;3.00;;;;;;;-145.69;100.00;71561.59;5054995;28;20203;-77
2021/12/27 02:54:30;;;;;;;4.53;2.63;;;;;;;-145.69;100.00;71573.53;5054942;28;20203;-77
2021/12/27 02:56:57;;;;;;;5.50;3.38;;;;;;;-145.69;100.00;71563.56;5041593;28;20466;-76
2021/12/27 02:59:23;;;;;;;6.27;3.40;;;;;;;-145.69;100.00;71547.66;5055892;28;20210;-76
2021/12/27 03:01:50;;;;;;;4.70;2.80;;;;;;;-145.69;100.00;71545.66;5055608;28;20199;-77
2021/12/27 03:04:16;;;;;;;6.93;3.07;;;;;;;-145.69;100.00;71549.66;5055115;28;20226;-76
2021/12/27 03:06:43;;;;;;;4.60;2.87;;;;;;;-145.69;100.00;71555.63;5054800;28;20195;-76
2021/12/27 03:09:09;;;;;;;3.93;2.53;;;;;;;-145.69;100.00;71557.59;5054921;28;20238;-77
2021/12/27 03:11:37;;;;;;;5.53;2.83;;;;;;;-145.69;100.00;71557.59;5055031;28;20206;-76
2021/12/27 03:14:04;;;;;;;4.50;2.60;;;;;;;-145.69;100.00;71545.66;5054781;28;20275;-76
2021/12/27 03:16:32;;;;;;;7.17;3.23;;;;;;;-145.69;100.00;71537.72;5054460;28;20215;-76
2021/12/27 03:18:58;;;;;;;8.23;2.70;;;;;;;-145.69;100.00;71537.72;5053994;28;20196;-76
2021/12/27 03:21:26;;;;;;;6.07;2.80;;;;;;;-145.69;100.00;71521.78;5054253;28;20302;-76
2021/12/27 03:23:53;;;;;;;4.73;2.70;;;;;;;-145.69;100.00;71523.78;5055219;28;20204;-76
2021/12/27 03:26:20;;;;;;;8.30;2.67;;;;;;;-145.69;100.00;71517.81;5052682;28;20195;-77
2021/12/27 03:28:48;;;;;;;5.57;2.40;;;;;;;-145.69;100.00;71513.81;5053682;28;20198;-76
2021/12/27 03:31:16;;;;;;;9.93;2.90;;;;;;;-145.69;100.00;71503.88;5054644;28;20199;-76
2021/12/27 03:33:42;;;;;;;6.83;3.10;;;;;;;-145.69;100.00;71505.88;5053388;28;20207;-76
2021/12/27 03:36:11;;;;;;;5.13;2.53;;;;;;;-145.69;100.00;71499.91;5054635;28;20199;-76
2021/12/27 03:38:41;;;;;;;7.37;3.20;;;;;;;-145.69;100.00;71491.94;5054539;28;20207;-77
2021/12/27 03:41:10;;;;;;;6.37;3.00;;;;;;;-145.69;100.00;71485.97;5054690;28;20226;-77
2021/12/27 03:43:36;;;;;;;8.17;2.60;;;;;;;-145.69;100.00;71474.03;5054633;28;20309;-78
2021/12/27 03:46:04;;;;;;;6.33;2.90;;;;;;;-145.69;100.00;71483.97;5054663;28;20203;-77
2021/12/27 03:48:30;;;;;;;3.87;2.63;;;;;;;-145.69;100.00;71483.97;5053566;28;20582;-77
2021/12/27 03:50:57;;;;;;;5.03;2.57;;;;;;;-145.69;100.00;71483.97;5054525;28;20206;-77
2021/12/27 03:53:24;;;;;;;4.20;2.23;;;;;;;-145.69;100.00;71489.94;5050195;28;20245;-77
2021/12/27 03:55:50;;;;;;;6.47;3.03;;;;;;;-145.69;100.00;71489.94;5054178;28;20228;-76
2021/12/27 03:58:26;;;;;;;3.80;2.60;;;;;;;-145.69;100.00;71483.97;5053074;28;20717;-77
2021/12/27 04:01:02;;;;;;;4.60;2.60;;;;;;;-145.69;100.00;71476.03;5053862;28;20283;-76
2021/12/27 04:03:31;;;;;;;4.13;2.60;;;;;;;-145.69;100.00;71476.03;5053287;28;20565;-77
2021/12/27 04:05:58;;;;;;;3.97;2.30;;;;;;;-145.69;100.00;71480.00;5052912;28;20196;-76
2021/12/27 04:08:25;;;;;;;5.00;2.73;;;;;;;-145.69;100.00;71483.97;5053974;28;20199;-76
2021/12/27 04:10:53;;;;;;;6.00;3.00;;;;;;;-145.69;100.00;71485.97;5053843;28;20203;-76
2021/12/27 04:13:21;;;;;;;4.37;2.67;;;;;;;-145.69;100.00;71480.00;5054006;28;20200;-76
2021/12/27 04:15:48;;;;;;;6.73;3.00;;;;;;;-145.69;100.00;71483.97;5054282;28;20206;-77
2021/12/27 04:18:15;;;;;;;7.17;2.63;;;;;;;-145.69;100.00;71485.97;5052077;28;20226;-76
2021/12/27 04:20:42;;;;;;;5.17;2.73;;;;;;;-145.69;100.00;71485.97;5053065;28;20218;-76
2021/12/27 04:23:09;;;;;;;5.37;2.93;;;;;;;-145.69;100.00;71472.03;5053901;28;20262;-76
2021/12/27 04:25:36;;;;;;;7.80;2.70;;;;;;;-145.69;100.00;71458.09;5053495;28;20192;-76
2021/12/27 04:28:02;;;;;;;141.90;7.47;;;;;;;-145.69;100.00;71476.03;5054252;28;20211;-76
2021/12/27 04:30:29;;;;;;;4.90;2.80;;;;;;;-145.69;100.00;71482.00;5052753;28;20196;-76
2021/12/27 04:32:55;;;;;;;3.90;2.27;;;;;;;-145.69;100.00;71493.94;5051783;28;20654;-76
2021/12/27 04:35:22;;;;;;;7.80;3.43;;;;;;;-145.69;100.00;71491.94;5053357;28;20203;-77
2021/12/27 04:37:51;;;;;;;6.00;2.90;;;;;;;-145.69;100.00;71485.97;5053164;28;20669;-77
2021/12/27 04:40:20;;;;;;;5.43;2.70;;;;;;;-145.69;100.00;71480.00;5052441;28;20203;-76
2021/12/27 04:42:49;;;;;;;9.07;3.13;;;;;;;-145.69;100.00;71474.03;5052312;28;20199;-76
2021/12/27 04:45:17;;;;;;;6.27;2.70;;;;;;;-145.69;100.00;71482.00;5052262;28;20249;-76
2021/12/27 04:47:44;;;;;;;4.63;2.60;;;;;;;-145.69;100.00;71472.03;5052372;28;20199;-77
2021/12/27 04:50:11;;;;;;;8.23;3.43;;;;;;;-145.69;100.00;71462.09;5052926;28;20202;-76
2021/12/27 04:52:40;;;;;;;8.47;2.93;;;;;;;-145.69;100.00;71450.16;5053310;28;20199;-77
2021/12/27 04:55:10;;;;;;;6.27;3.33;;;;;;;-145.69;100.00;71458.09;5052864;28;20191;-77
2021/12/27 04:57:36;;;;;;;6.00;2.60;;;;;;;-145.69;100.00;71474.03;5052712;28;20267;-76
2021/12/27 05:00:04;;;;;;;5.73;2.80;;;;;;;-145.69;100.00;71466.06;5053038;28;20202;-77
2021/12/27 05:02:31;;;;;;;8.13;2.93;;;;;;;-145.69;100.00;71454.13;5052734;28;20194;-76
2021/12/27 05:04:57;;;;;;;6.10;3.00;;;;;;;-145.69;100.00;71458.09;5052310;28;20195;-77
2021/12/27 05:07:24;;;;;;;6.10;2.50;;;;;;;-145.69;100.00;71491.94;5052366;28;20226;-76
2021/12/27 05:09:50;;;;;;;6.40;3.10;;;;;;;-145.69;100.00;71501.88;5052343;28;20191;-76
2021/12/27 05:12:18;;;;;;;9.27;3.33;;;;;;;-145.69;100.00;71493.94;5052466;28;20196;-77
2021/12/27 05:14:45;;;;;;;7.47;3.40;;;;;;;-145.69;100.00;71482.00;5052985;28;20203;-77
2021/12/27 05:17:11;;;;;;;6.50;3.20;;;;;;;-145.69;100.00;71491.94;5052699;28;20223;-76
2021/12/27 05:19:37;;;;;;;11.70;3.87;;;;;;;-145.69;100.00;71505.88;5052172;28;20200;-77
2021/12/27 05:22:04;;;;;;;7.37;3.43;;;;;;;-145.69;100.00;71493.94;5052564;28;20237;-76
2021/12/27 05:24:31;;;;;;;8.90;3.67;;;;;;;-145.69;100.00;71525.78;5051921;28;20206;-77
2021/12/27 05:26:57;;;;;;;6.40;3.03;;;;;;;-145.69;100.00;71541.69;5052855;28;20673;-76
2021/12/27 05:29:25;;;;;;;6.77;3.30;;;;;;;-145.69;100.00;71553.63;5052027;28;20245;-77
2021/12/27 05:31:51;;;;;;;9.00;3.20;;;;;;;-145.69;100.00;71565.56;5052034;28;20253;-77
2021/12/27 05:34:18;;;;;;;4.97;2.70;;;;;;;-145.69;100.00;71583.47;5047847;28;20214;-76
2021/12/27 05:36:45;;;;;;;6.13;2.73;;;;;;;-145.69;100.00;71545.66;5052517;28;20215;-77
2021/12/27 05:39:16;;;;;;;7.30;3.30;;;;;;;-145.69;100.00;71557.59;5050398;28;20223;-77
2021/12/27 05:41:43;;;;;;;5.63;2.60;;;;;;;-145.69;100.00;71543.69;5052930;28;20199;-77
2021/12/27 05:44:10;;;;;;;6.67;3.10;;;;;;;-145.69;100.00;71553.63;5052363;28;20195;-76
2021/12/27 05:46:37;;;;;;;4.90;2.57;;;;;;;-145.69;100.00;71537.72;5052289;28;20192;-76
2021/12/27 05:49:04;;;;;;;8.40;3.83;;;;;;;-145.69;100.00;71541.69;5052296;28;20249;-76
2021/12/27 05:51:30;;;;;;;9.83;3.43;;;;;;;-145.69;100.00;71539.69;5054469;28;20206;-77
2021/12/27 05:53:57;;;;;;;9.70;3.73;;;;;;;-145.69;100.00;71533.72;5056098;28;20252;-77
2021/12/27 05:56:23;;;;;;;7.63;3.10;;;;;;;-145.69;100.00;71545.66;5056323;28;20199;-77
2021/12/27 05:58:50;;;;;;;6.53;2.60;;;;;;;-145.69;100.00;71557.59;5055795;28;20230;-77
2021/12/27 06:01:16;;;;;;;10.60;2.70;;;;;;;-145.69;100.00;71563.56;5055894;28;20200;-77
2021/12/27 06:03:44;;;;;;;6.70;2.83;;;;;;;-145.69;100.00;71561.59;5055706;28;20207;-77
2021/12/27 06:06:11;;;;;;;4.37;2.20;;;;;;;-145.69;100.00;71575.50;5054603;28;20192;-77
2021/12/27 06:08:37;;;;;;;4.33;1.87;;;;;;;-145.69;100.00;71595.41;5054841;28;20269;-76
2021/12/27 06:11:04;;;;;;;4.70;2.33;;;;;;;-145.69;100.00;71601.38;5056117;28;20195;-77
2021/12/27 06:13:30;;;;;;;3.80;1.90;;;;;;;-145.69;100.00;71611.34;5055884;28;20195;-76
2021/12/27 06:15:57;;;;;;;4.30;2.03;;;;;;;-145.69;100.00;71627.25;5055852;28;20609;-76
2021/12/27 06:18:24;;;;;;;5.83;1.57;;;;;;;-145.69;100.00;71635.22;5051654;28;20740;-76
2021/12/27 06:20:52;;;;;;;4.17;1.70;;;;;;;-145.69;100.00;71641.19;5055706;28;20298;-77
2021/12/27 06:23:18;;;;;;;2.93;1.70;;;;;;;-145.69;100.00;71625.25;5054637;28;20694;-77
2021/12/27 06:25:44;;;;;;;2.93;1.70;;;;;;;-145.69;100.00;71603.38;5055978;28;20199;-77
2021/12/27 06:28:11;;;;;;;3.70;1.87;;;;;;;-145.69;100.00;71615.31;5055588;28;20203;-76
2021/12/27 06:30:38;;;;;;;5.43;2.00;;;;;;;-145.69;100.00;71617.31;5055714;28;20206;-76
2021/12/27 06:33:06;;;;;;;4.57;2.23;;;;;;;-145.69;100.00;71619.28;5055558;28;20225;-76
2021/12/27 06:35:33;;;;;;;4.27;2.00;;;;;;;-145.69;100.00;71641.19;5054537;28;20206;-76
2021/12/27 06:38:01;;;;;;;6.90;1.80;;;;;;;-145.69;100.00;71659.09;5055842;28;20219;-77
2021/12/27 06:40:28;;;;;;;5.40;2.40;;;;;;;-145.69;100.00;71663.06;5056096;28;20593;-76
2021/12/27 06:42:54;;;;;;;5.60;2.17;;;;;;;-145.69;100.00;71682.97;5055223;28;20207;-77
2021/12/27 06:45:21;;;;;;;5.73;1.90;;;;;;;-145.69;100.00;71684.97;5055254;28;20196;-77
2021/12/27 06:47:47;;;;;;;5.33;2.27;;;;;;;-145.69;100.00;71688.94;5055078;28;20207;-77
2021/12/27 06:50:14;;;;;;;7.13;2.47;;;;;;;-145.69;100.00;71702.88;5055489;28;20199;-76
2021/12/27 06:52:40;;;;;;;7.03;2.90;;;;;;;-145.69;100.00;71716.81;5055451;28;20204;-76
2021/12/27 06:55:10;;;;;;;6.60;2.37;;;;;;;-145.69;100.00;71734.72;5055502;28;20207;-76
2021/12/27 06:57:37;;;;;;;7.37;2.90;;;;;;;-145.69;100.00;71720.78;5055442;28;20216;-76
2021/12/27 07:00:05;;;;;;;9.67;3.23;;;;;;;-145.69;100.00;71692.94;5055911;28;20199;-76
2021/12/27 07:02:32;;;;;;;10.87;3.67;;;;;;;-145.69;100.00;71712.81;5051977;28;20199;-76
2021/12/27 07:04:58;;;;;;;15.17;4.00;;;;;;;-145.69;100.00;71712.81;5054451;28;20613;-75
2021/12/27 07:07:25;;;;;;;15.80;4.83;;;;;;;-145.69;100.00;71716.81;5054158;28;20678;-76
2021/12/27 07:09:51;;;;;;;13.47;4.50;;;;;;;-145.69;100.00;71710.84;5055125;28;20195;-77
2021/12/27 07:12:19;;;;;;;15.47;4.90;;;;;;;-145.69;100.00;71690.94;5055100;28;20238;-76
2021/12/27 07:14:47;;;;;;;26.00;6.37;;;;;;;-145.69;100.00;71661.09;5055403;28;20654;-76
2021/12/27 07:17:13;;;;;;;18.57;7.03;;;;;;;-145.69;100.00;71669.03;5054347;28;20650;-76
2021/12/27 07:19:40;;;;;;;26.33;7.60;;;;;;;-145.69;100.00;71647.16;5055009;28;20219;-76
2021/12/27 07:22:06;;;;;;;25.30;7.07;;;;;;;-145.69;100.00;71647.16;5053899;28;20649;-76
2021/12/27 07:24:33;;;;;;;23.30;7.07;;;;;;;-145.69;100.00;71645.16;5054506;28;20198;-76
2021/12/27 07:27:00;;;;;;;28.93;8.07;;;;;;;-145.69;100.00;71603.38;5055168;28;20215;-76
2021/12/27 07:29:28;;;;;;;22.57;7.50;;;;;;;-145.69;100.00;71633.22;5054277;28;20689;-76
2021/12/27 07:31:54;;;;;;;25.67;7.37;;;;;;;-145.69;100.00;71635.22;5054313;28;20200;-76
2021/12/27 07:34:24;;;;;;;35.70;8.37;;;;;;;-145.69;100.00;71587.47;5054566;28;20200;-76
2021/12/27 07:36:51;;;;;;;36.77;9.37;;;;;;;-145.69;100.00;71585.47;5054592;28;20283;-76
2021/12/27 07:39:18;;;;;;;38.70;8.70;;;;;;;-145.69;100.00;71583.47;5054315;28;20227;-76
2021/12/27 07:41:45;;;;;;;28.73;7.97;;;;;;;-145.69;100.00;71607.34;5053999;28;20199;-76
2021/12/27 07:44:12;;;;;;;26.67;7.80;;;;;;;-145.69;100.00;71617.31;5054750;28;20206;-75
2021/12/27 07:46:40;;;;;;;19.60;6.53;;;;;;;-145.69;100.00;71635.22;5053461;28;20543;-76
2021/12/27 07:49:07;;;;;;;23.87;5.93;;;;;;;-145.69;100.00;71647.16;5054348;28;20202;-76
2021/12/27 07:51:34;;;;;;;25.53;6.97;;;;;;;-145.69;100.00;71671.03;5054529;28;20200;-76
2021/12/27 07:54:01;;;;;;;24.50;7.83;;;;;;;-145.69;100.00;71647.16;5054303;28;20306;-76
2021/12/27 07:56:27;;;;;;;24.03;6.83;;;;;;;-145.69;100.00;71659.09;5054031;28;20202;-76
2021/12/27 07:58:54;;;;;;;25.53;7.03;;;;;;;-145.69;100.00;71675.00;5053645;28;20223;-76
2021/12/27 08:01:20;;;;;;;24.17;6.40;;;;;;;-145.69;100.00;71686.97;5052824;28;20555;-76
2021/12/27 08:03:48;;;;;;;17.70;5.57;;;;;;;-145.69;100.00;71692.94;5053043;28;20665;-75
2021/12/27 08:06:14;;;;;;;25.73;6.60;;;;;;;-145.69;100.00;71700.88;5053657;28;20212;-76
2021/12/27 08:08:41;;;;;;;21.47;6.27;;;;;;;-145.69;100.00;71686.97;5054066;28;20211;-76
2021/12/27 08:11:07;;;;;;;21.53;6.77;;;;;;;-145.69;100.00;71682.97;5053173;28;20191;-76
2021/12/27 08:13:35;;;;;;;17.60;5.30;;;;;;;-145.69;100.00;71679.00;5053184;28;20187;-75
2021/12/27 08:16:01;;;;;;;27.47;6.77;;;;;;;-145.69;100.00;71661.09;5053933;28;20219;-76
2021/12/27 08:18:29;;;;;;;45.83;9.70;;;;;;;-145.69;100.00;71605.38;5054233;28;20234;-76
2021/12/27 08:20:57;;;;;;;31.40;7.83;;;;;;;-145.69;100.00;71585.47;5052880;28;20195;-76
2021/12/27 08:23:24;;;;;;;36.33;8.80;;;;;;;-145.69;100.00;71593.44;5039444;28;20203;-75
2021/12/27 08:25:51;;;;;;;34.50;8.60;;;;;;;-145.69;100.00;71583.47;5052171;28;20290;-77
2021/12/27 08:28:17;;;;;;;31.93;8.30;;;;;;;-145.69;100.00;71593.44;5053636;28;20206;-76
2021/12/27 08:30:44;;;;;;;27.63;7.73;;;;;;;-145.69;100.00;71603.38;5053781;28;20198;-76
2021/12/27 08:33:10;;;;;;;26.33;7.13;;;;;;;-145.69;100.00;71617.31;5053458;28;20203;-76
2021/12/27 08:35:37;;;;;;;25.87;7.77;;;;;;;-145.69;100.00;71623.28;5053276;28;20601;-76
2021/12/27 08:38:05;;;;;;;24.20;7.13;;;;;;;-145.69;100.00;71619.28;5053298;28;20294;-76
2021/12/27 08:40:32;;;;;;;22.20;6.17;;;;;;;-145.69;100.00;71625.25;5052949;28;20192;-76
2021/12/27 08:42:58;;;;;;;22.87;6.47;;;;;;;-145.69;100.00;71631.25;5052461;28;20647;-76
2021/12/27 08:45:24;;;;;;;25.03;6.13;;;;;;;-145.69;100.00;71635.22;5053930;28;20195;-77
2021/12/27 08:47:51;;;;;;;18.40;5.73;;;;;;;-145.69;100.00;71637.19;5053144;28;20206;-76
2021/12/27 08:50:18;;;;;;;19.90;5.83;;;;;;;-145.69;100.00;71627.25;5053664;28;20566;-76
2021/12/27 08:52:45;;;;;;;17.90;6.10;;;;;;;-145.69;100.00;71625.25;5052942;28;20733;-76
2021/12/27 08:55:13;;;;;;;21.03;6.20;;;;;;;-145.69;100.00;71617.31;5053203;28;20664;-76
2021/12/27 08:57:41;;;;;;;17.60;5.10;;;;;;;-145.69;100.00;71613.31;5052235;28;20658;-77
2021/12/27 09:00:10;;;;;;;19.87;5.87;;;;;;;-145.69;100.00;71611.34;5052857;28;20226;-76
2021/12/27 09:02:37;;;;;;;21.47;6.47;;;;;;;-145.69;100.00;71593.44;5052608;28;20547;-76
2021/12/27 09:05:05;;;;;;;25.63;6.90;;;;;;;-145.69;100.00;71575.50;5051830;28;20639;-76
2021/12/27 09:07:32;;;;;;;29.17;6.10;;;;;;;-145.69;100.00;71585.47;5050175;28;20199;-76
2021/12/27 09:09:58;;;;;;;22.33;6.43;;;;;;;-145.69;100.00;71595.41;5052912;28;20199;-76
2021/12/27 09:12:26;;;;;;;27.77;6.43;;;;;;;-145.69;100.00;71587.47;5052877;28;20196;-77
2021/12/27 09:14:52;;;;;;;24.00;7.43;;;;;;;-145.69;100.00;71553.63;5052868;28;20200;-75
2021/12/27 09:17:19;;;;;;;27.43;6.80;;;;;;;-145.69;100.00;71549.66;5052080;28;20191;-76
2021/12/27 09:19:46;;;;;;;27.97;7.30;;;;;;;-145.69;100.00;71555.63;5051910;28;20227;-77
2021/12/27 09:22:13;;;;;;;22.87;6.77;;;;;;;-145.69;100.00;71563.56;5052173;28;20223;-77
2021/12/27 09:24:40;;;;;;;25.87;7.00;;;;;;;-145.69;100.00;71563.56;5052461;28;20199;-77
2021/12/27 09:27:07;;;;;;;19.80;5.77;;;;;;;-145.69;100.00;71561.59;5052495;28;20624;-78
2021/12/27 09:29:35;;;;;;;32.40;7.67;;;;;;;-145.69;100.00;71535.72;5051766;28;20677;-76
2021/12/27 09:32:01;;;;;;;35.03;7.93;;;;;;;-145.69;100.00;71521.78;5052505;28;20203;-76
2021/12/27 09:34:28;;;;;;;26.80;7.53;;;;;;;-145.69;100.00;71487.97;5051529;28;20191;-75
2021/12/27 09:36:54;;;;;;;35.73;7.60;;;;;;;-145.69;100.00;71478.00;5049350;28;20203;-76
2021/12/27 09:39:21;;;;;;;27.53;6.87;;;;;;;-145.69;100.00;71466.06;5051360;28;20645;-75
2021/12/27 09:41:47;;;;;;;30.63;7.73;;;;;;;-145.69;100.00;71452.16;5052801;28;20191;-75
2021/12/27 09:44:14;;;;;;;41.83;8.30;;;;;;;-145.69;100.00;71442.19;5052579;28;20658;-76
2021/12/27 09:46:42;;;;;;;38.43;7.90;;;;;;;-145.69;100.00;71428.25;5041221;28;20203;-76
2021/12/27 09:49:13;;;;;;;26.57;7.43;;;;;;;-145.69;100.00;71422.28;5034578;28;20208;-76
2021/12/27 09:51:40;;;;;;;30.60;8.10;;;;;;;-145.69;100.00;71418.31;5045673;28;20204;-76
2021/12/27 09:54:07;;;;;;;36.57;8.00;;;;;;;-145.69;100.00;71414.34;5041441;28;20204;-76
2021/12/27 09:56:34;;;;;;;26.93;6.33;;;;;;;-145.69;100.00;71400.41;5051901;28;20249;-76
2021/12/27 09:59:00;;;;;;;29.13;7.40;;;;;;;-145.69;100.00;71402.41;5052174;28;20292;-75
2021/12/27 10:01:27;;;;;;;25.27;7.30;;;;;;;-145.69;100.00;71390.47;5051972;28;20188;-75
2021/12/27 10:03:56;;;;;;;19.20;6.13;;;;;;;-145.69;100.00;71382.50;5051744;28;20681;-75
2021/12/27 10:06:25;;;;;;;19.73;6.07;;;;;;;-145.69;100.00;71378.50;5052309;28;20734;-75
2021/12/27 10:08:54;;;;;;;17.90;6.07;;;;;;;-145.69;100.00;71360.59;5051447;28;20206;-75
2021/12/27 10:11:22;;;;;;;25.77;6.50;;;;;;;-145.69;100.00;71338.72;5052017;28;20199;-76
2021/12/27 10:14:01;;;;;;;23.80;6.67;;;;;;;-145.69;100.00;71322.81;5051677;28;20210;-75
2021/12/27 10:16:29;;;;;;;17.57;6.33;;;;;;;-145.69;100.00;71306.88;5039233;28;20222;-75
2021/12/27 10:18:58;;;;;;;16.70;5.67;;;;;;;-145.69;100.00;71292.94;5032411;28;20228;-75
2021/12/27 10:21:26;;;;;;;12.93;5.53;;;;;;;-145.69;100.00;71281.00;5041715;28;20227;-75
2021/12/27 10:24:05;;;;;;;14.93;5.40;;;;;;;-145.69;100.00;71263.09;5051636;28;20217;-75
2021/12/27 10:26:33;;;;;;;14.30;4.70;;;;;;;-145.69;100.00;71265.09;5051047;28;20647;-75
2021/12/27 10:29:16;;;;;;;11.30;4.53;;;;;;;-145.69;100.00;71273.06;5050914;28;20191;-75
2021/12/27 10:31:59;;;;;;;12.17;4.70;;;;;;;-145.69;100.00;71279.03;5050686;28;20250;-75
2021/12/27 10:34:30;;;;;;;8.30;4.10;;;;;;;-145.69;100.00;71283.00;5046084;28;20192;-75
2021/12/27 10:37:01;;;;;;;9.43;4.33;;;;;;;-145.69;100.00;71279.03;5053215;28;20202;-76
2021/12/27 10:39:40;;;;;;;9.40;4.60;;;;;;;-145.69;100.00;71265.09;5054953;28;20216;-75
2021/12/27 10:42:08;;;;;;;10.77;4.77;;;;;;;-145.69;100.00;71247.19;5053750;28;20184;-76
2021/12/27 10:44:36;;;;;;;10.27;4.63;;;;;;;-145.69;100.00;71239.22;5054946;28;20253;-75
2021/12/27 10:47:03;;;;;;;11.17;4.63;;;;;;;-145.69;100.00;71215.34;5054895;28;20204;-75
2021/12/27 10:52:50;;;;;;;15.27;4.63;;;;;;;-145.69;100.00;71203.41;5089933;28;20555;-77
2021/12/27 10:55:19;;;;;;;7.40;3.97;;;;;;;-145.69;100.00;71183.50;5080666;28;20202;-77
2021/12/27 10:57:47;;;;;;;9.07;4.27;;;;;;;-145.69;100.00;71175.56;5068122;28;20219;-77
2021/12/27 11:00:26;;;;;;;8.17;4.07;;;;;;;-145.69;100.00;71167.59;5078763;28;20537;-77
2021/12/27 11:02:53;;;;;;;7.30;4.17;;;;;;;-145.69;100.00;71167.59;5079683;28;20209;-77
2021/12/27 11:05:23;;;;;;;10.03;4.57;;;;;;;-145.69;100.00;71147.69;5084866;28;20202;-77
2021/12/27 11:07:51;;;;;;;9.00;3.60;;;;;;;-145.69;100.00;71143.72;5077217;28;20669;-76
2021/12/27 11:10:20;;;;;;;9.30;4.00;;;;;;;-145.69;100.00;71133.78;5087738;28;20197;-77
2021/12/27 11:12:47;;;;;;;9.27;3.97;;;;;;;-145.69;100.00;71133.78;5075384;28;20549;-76